sensor_id;sensor_type;location;lat;lon;timestamp;pressure;altitude;pressure_sealevel;temperature;humidity
75039;BME280;63609;49.992;14.512;2022-12-08T00:01:22;97498.66;;;-0.09;67.60
75039;BME280;63609;49.992;14.512;2022-12-08T00:03:50;97494.28;;;0.31;66.41
75039;BME280;63609;49.992;14.512;2022-12-08T00:09:02;97493.94;;;0.23;66.28
75039;BME280;63609;49.992;14.512;2022-12-08T00:11:48;97495.78;;;0.60;65.52
75039;BME280;63609;49.992;14.512;2022-12-08T00:14:14;97490.84;;;0.68;64.26
75039;BME280;63609;49.992;14.512;2022-12-08T00:16:41;97507.75;;;0.39;65.38
75039;BME280;63609;49.992;14.512;2022-12-08T00:19:08;97495.34;;;0.41;65.53
75039;BME280;63609;49.992;14.512;2022-12-08T00:21:35;97497.31;;;-0.02;67.03
75039;BME280;63609;49.992;14.512;2022-12-08T00:24:02;97502.13;;;0.31;65.99
75039;BME280;63609;49.992;14.512;2022-12-08T00:26:29;97498.19;;;0.38;65.71
75039;BME280;63609;49.992;14.512;2022-12-08T00:28:56;97493.25;;;0.46;65.26
75039;BME280;63609;49.992;14.512;2022-12-08T00:31:22;97496.59;;;0.35;66.02
75039;BME280;63609;49.992;14.512;2022-12-08T00:33:49;97483.44;;;0.23;65.73
75039;BME280;63609;49.992;14.512;2022-12-08T00:36:16;97483.94;;;0.15;66.26
75039;BME280;63609;49.992;14.512;2022-12-08T00:38:43;97481.88;;;0.20;66.09
75039;BME280;63609;49.992;14.512;2022-12-08T00:41:15;97490.81;;;0.03;66.67
75039;BME280;63609;49.992;14.512;2022-12-08T00:43:43;97480.53;;;0.00;67.06
75039;BME280;63609;49.992;14.512;2022-12-08T00:46:10;97486.38;;;0.18;66.18
75039;BME280;63609;49.992;14.512;2022-12-08T00:48:37;97500.25;;;0.33;66.10
75039;BME280;63609;49.992;14.512;2022-12-08T00:51:05;97492.47;;;-0.08;66.95
75039;BME280;63609;49.992;14.512;2022-12-08T00:53:31;97490.28;;;-0.02;66.85
75039;BME280;63609;49.992;14.512;2022-12-08T00:55:58;97484.59;;;-0.08;66.83
75039;BME280;63609;49.992;14.512;2022-12-08T00:58:25;97491.31;;;-0.04;67.03
75039;BME280;63609;49.992;14.512;2022-12-08T01:00:51;97489.66;;;-0.05;67.23
75039;BME280;63609;49.992;14.512;2022-12-08T01:03:18;97498.66;;;-0.09;67.47
75039;BME280;63609;49.992;14.512;2022-12-08T01:05:45;97503.81;;;0.19;66.70
75039;BME280;63609;49.992;14.512;2022-12-08T01:08:12;97499.56;;;0.43;65.75
75039;BME280;63609;49.992;14.512;2022-12-08T01:10:38;97507.25;;;0.07;66.59
75039;BME280;63609;49.992;14.512;2022-12-08T01:13:06;97494.91;;;-0.05;67.34
75039;BME280;63609;49.992;14.512;2022-12-08T01:15:32;97506.19;;;0.09;66.98
75039;BME280;63609;49.992;14.512;2022-12-08T01:17:59;97503.44;;;0.38;64.98
75039;BME280;63609;49.992;14.512;2022-12-08T01:20:26;97506.97;;;0.24;65.51
75039;BME280;63609;49.992;14.512;2022-12-08T01:22:53;97507.69;;;0.13;66.36
75039;BME280;63609;49.992;14.512;2022-12-08T01:25:19;97494.97;;;0.07;66.94
75039;BME280;63609;49.992;14.512;2022-12-08T01:27:46;97506.09;;;-0.16;68.15
75039;BME280;63609;49.992;14.512;2022-12-08T01:30:13;97497.72;;;-0.08;67.27
75039;BME280;63609;49.992;14.512;2022-12-08T01:32:40;97498.44;;;-0.33;67.94
75039;BME280;63609;49.992;14.512;2022-12-08T01:35:07;97501.25;;;-0.36;67.43
75039;BME280;63609;49.992;14.512;2022-12-08T01:37:34;97494.59;;;-0.28;67.81
75039;BME280;63609;49.992;14.512;2022-12-08T01:40:00;97491.59;;;-0.22;67.72
75039;BME280;63609;49.992;14.512;2022-12-08T01:42:28;97500.94;;;-0.59;68.19
75039;BME280;63609;49.992;14.512;2022-12-08T01:45:01;97492.25;;;-0.32;68.10
75039;BME280;63609;49.992;14.512;2022-12-08T01:47:38;97490.88;;;-0.38;68.28
75039;BME280;63609;49.992;14.512;2022-12-08T01:50:09;97494.09;;;-0.47;68.96
75039;BME280;63609;49.992;14.512;2022-12-08T01:52:44;97482.97;;;-0.24;67.43
75039;BME280;63609;49.992;14.512;2022-12-08T01:55:17;97483.41;;;-0.44;68.35
75039;BME280;63609;49.992;14.512;2022-12-08T01:57:52;97477.00;;;-0.40;68.87
75039;BME280;63609;49.992;14.512;2022-12-08T02:00:21;97476.31;;;-0.02;67.85
75039;BME280;63609;49.992;14.512;2022-12-08T02:02:55;97479.34;;;-0.35;68.22
75039;BME280;63609;49.992;14.512;2022-12-08T02:05:25;97474.25;;;-0.51;68.61
75039;BME280;63609;49.992;14.512;2022-12-08T02:07:53;97469.28;;;-0.29;68.00
75039;BME280;63609;49.992;14.512;2022-12-08T02:10:22;97476.38;;;-0.44;68.37
75039;BME280;63609;49.992;14.512;2022-12-08T02:12:51;97464.13;;;-0.16;67.82
75039;BME280;63609;49.992;14.512;2022-12-08T02:20:54;97470.97;;;-0.55;69.23
75039;BME280;63609;49.992;14.512;2022-12-08T02:29:07;97459.28;;;-0.22;68.27
75039;BME280;63609;49.992;14.512;2022-12-08T02:37:28;97462.47;;;-0.04;67.53
75039;BME280;63609;49.992;14.512;2022-12-08T02:40:02;97455.22;;;-0.14;67.61
75039;BME280;63609;49.992;14.512;2022-12-08T02:45:30;97455.34;;;-0.02;68.00
75039;BME280;63609;49.992;14.512;2022-12-08T02:47:59;97450.44;;;0.06;67.46
75039;BME280;63609;49.992;14.512;2022-12-08T02:50:26;97447.22;;;-0.12;67.00
75039;BME280;63609;49.992;14.512;2022-12-08T02:52:53;97451.22;;;-0.06;67.19
75039;BME280;63609;49.992;14.512;2022-12-08T02:55:27;97446.88;;;0.07;67.68
75039;BME280;63609;49.992;14.512;2022-12-08T03:00:52;97439.75;;;0.09;67.07
75039;BME280;63609;49.992;14.512;2022-12-08T03:03:40;97442.69;;;0.17;66.46
75039;BME280;63609;49.992;14.512;2022-12-08T03:06:30;97433.78;;;0.32;65.70
75039;BME280;63609;49.992;14.512;2022-12-08T03:09:03;97425.47;;;0.13;67.00
75039;BME280;63609;49.992;14.512;2022-12-08T03:11:43;97433.28;;;0.00;66.96
75039;BME280;63609;49.992;14.512;2022-12-08T03:14:15;97426.31;;;0.13;66.27
75039;BME280;63609;49.992;14.512;2022-12-08T03:16:45;97421.38;;;0.09;66.87
75039;BME280;63609;49.992;14.512;2022-12-08T03:19:23;97426.53;;;0.23;66.51
75039;BME280;63609;49.992;14.512;2022-12-08T03:21:53;97422.13;;;0.24;66.71
75039;BME280;63609;49.992;14.512;2022-12-08T03:24:39;97426.09;;;0.16;66.54
75039;BME280;63609;49.992;14.512;2022-12-08T03:27:13;97416.03;;;0.10;66.00
75039;BME280;63609;49.992;14.512;2022-12-08T03:29:42;97410.31;;;0.04;65.45
75039;BME280;63609;49.992;14.512;2022-12-08T03:34:49;97410.38;;;0.29;65.61
75039;BME280;63609;49.992;14.512;2022-12-08T03:37:17;97409.00;;;0.24;65.46
75039;BME280;63609;49.992;14.512;2022-12-08T03:39:43;97409.09;;;0.09;66.53
75039;BME280;63609;49.992;14.512;2022-12-08T03:42:10;97409.38;;;0.05;66.13
75039;BME280;63609;49.992;14.512;2022-12-08T03:44:37;97413.44;;;-0.17;66.89
75039;BME280;63609;49.992;14.512;2022-12-08T03:47:04;97408.31;;;-0.05;67.17
75039;BME280;63609;49.992;14.512;2022-12-08T03:49:30;97405.16;;;-0.10;67.36
75039;BME280;63609;49.992;14.512;2022-12-08T03:51:57;97401.59;;;0.03;66.94
75039;BME280;63609;49.992;14.512;2022-12-08T03:54:24;97399.22;;;0.13;66.48
75039;BME280;63609;49.992;14.512;2022-12-08T03:56:50;97404.28;;;0.16;66.77
75039;BME280;63609;49.992;14.512;2022-12-08T03:59:17;97411.09;;;0.06;67.27
75039;BME280;63609;49.992;14.512;2022-12-08T04:01:44;97402.16;;;0.08;66.27
75039;BME280;63609;49.992;14.512;2022-12-08T04:04:11;97405.09;;;0.16;66.19
75039;BME280;63609;49.992;14.512;2022-12-08T04:06:37;97405.66;;;-0.18;66.41
75039;BME280;63609;49.992;14.512;2022-12-08T04:09:04;97407.03;;;-0.13;66.74
75039;BME280;63609;49.992;14.512;2022-12-08T04:11:31;97395.47;;;-0.23;67.19
75039;BME280;63609;49.992;14.512;2022-12-08T04:13:58;97397.19;;;-0.09;66.46
75039;BME280;63609;49.992;14.512;2022-12-08T04:16:24;97399.38;;;-0.16;67.16
75039;BME280;63609;49.992;14.512;2022-12-08T04:18:53;97400.53;;;-0.20;67.36
75039;BME280;63609;49.992;14.512;2022-12-08T04:21:20;97397.53;;;-0.28;67.05
75039;BME280;63609;49.992;14.512;2022-12-08T04:23:47;97399.69;;;-0.20;67.04
75039;BME280;63609;49.992;14.512;2022-12-08T04:26:14;97398.44;;;-0.15;67.91
75039;BME280;63609;49.992;14.512;2022-12-08T04:28:41;97385.22;;;-0.13;67.48
75039;BME280;63609;49.992;14.512;2022-12-08T04:31:09;97390.56;;;-0.15;67.59
75039;BME280;63609;49.992;14.512;2022-12-08T04:33:36;97385.22;;;-0.13;66.38
75039;BME280;63609;49.992;14.512;2022-12-08T04:36:03;97389.88;;;-0.31;66.90
75039;BME280;63609;49.992;14.512;2022-12-08T04:38:31;97385.31;;;-0.15;66.77
75039;BME280;63609;49.992;14.512;2022-12-08T04:40:58;97392.66;;;-0.47;67.32
75039;BME280;63609;49.992;14.512;2022-12-08T04:43:25;97386.19;;;-0.41;67.65
75039;BME280;63609;49.992;14.512;2022-12-08T04:45:51;97377.84;;;-0.21;65.69
75039;BME280;63609;49.992;14.512;2022-12-08T04:48:18;97383.78;;;-0.31;66.69
75039;BME280;63609;49.992;14.512;2022-12-08T04:50:45;97388.13;;;-0.57;67.50
75039;BME280;63609;49.992;14.512;2022-12-08T04:53:12;97381.44;;;-0.49;67.55
75039;BME280;63609;49.992;14.512;2022-12-08T04:55:41;97378.41;;;-0.69;68.73
75039;BME280;63609;49.992;14.512;2022-12-08T04:58:14;97370.44;;;-0.68;67.94
75039;BME280;63609;49.992;14.512;2022-12-08T05:00:41;97372.84;;;-0.51;66.88
75039;BME280;63609;49.992;14.512;2022-12-08T05:03:08;97369.03;;;-0.86;67.92
75039;BME280;63609;49.992;14.512;2022-12-08T05:05:35;97372.94;;;-0.93;69.00
75039;BME280;63609;49.992;14.512;2022-12-08T05:08:02;97368.19;;;-1.01;69.40
75039;BME280;63609;49.992;14.512;2022-12-08T05:10:30;97369.47;;;-0.94;69.18
75039;BME280;63609;49.992;14.512;2022-12-08T05:12:59;97365.25;;;-0.82;69.19
75039;BME280;63609;49.992;14.512;2022-12-08T05:15:26;97365.84;;;-0.91;69.62
75039;BME280;63609;49.992;14.512;2022-12-08T05:17:53;97358.34;;;-0.97;69.12
75039;BME280;63609;49.992;14.512;2022-12-08T05:20:19;97358.56;;;-1.00;70.05
75039;BME280;63609;49.992;14.512;2022-12-08T05:22:46;97375.09;;;-0.86;69.86
75039;BME280;63609;49.992;14.512;2022-12-08T05:25:13;97373.22;;;-0.84;69.50
75039;BME280;63609;49.992;14.512;2022-12-08T05:27:40;97361.94;;;-0.71;68.85
75039;BME280;63609;49.992;14.512;2022-12-08T05:30:07;97373.31;;;-0.85;70.13
75039;BME280;63609;49.992;14.512;2022-12-08T05:32:37;97369.66;;;-0.83;69.62
75039;BME280;63609;49.992;14.512;2022-12-08T05:35:04;97358.75;;;-0.89;69.82
75039;BME280;63609;49.992;14.512;2022-12-08T05:37:33;97362.38;;;-0.65;69.51
75039;BME280;63609;49.992;14.512;2022-12-08T05:40:00;97359.13;;;-0.68;69.48
75039;BME280;63609;49.992;14.512;2022-12-08T05:42:27;97358.47;;;-0.72;68.89
75039;BME280;63609;49.992;14.512;2022-12-08T05:44:54;97360.41;;;-0.61;69.52
75039;BME280;63609;49.992;14.512;2022-12-08T05:47:21;97346.28;;;-0.59;68.54
75039;BME280;63609;49.992;14.512;2022-12-08T05:49:47;97356.56;;;-0.56;69.12
75039;BME280;63609;49.992;14.512;2022-12-08T05:52:14;97359.88;;;-0.66;69.54
75039;BME280;63609;49.992;14.512;2022-12-08T05:54:42;97360.22;;;-0.58;69.05
75039;BME280;63609;49.992;14.512;2022-12-08T05:57:09;97353.69;;;-0.65;69.05
75039;BME280;63609;49.992;14.512;2022-12-08T05:59:38;97359.66;;;-0.63;68.72
75039;BME280;63609;49.992;14.512;2022-12-08T06:02:05;97355.56;;;-0.67;68.80
75039;BME280;63609;49.992;14.512;2022-12-08T06:04:32;97344.19;;;-0.81;68.83
75039;BME280;63609;49.992;14.512;2022-12-08T06:06:58;97357.53;;;-0.71;68.60
75039;BME280;63609;49.992;14.512;2022-12-08T06:09:25;97356.75;;;-0.86;69.13
75039;BME280;63609;49.992;14.512;2022-12-08T06:11:52;97355.22;;;-0.76;68.83
75039;BME280;63609;49.992;14.512;2022-12-08T06:14:19;97359.22;;;-0.70;68.25
75039;BME280;63609;49.992;14.512;2022-12-08T06:16:45;97355.91;;;-0.86;68.83
75039;BME280;63609;49.992;14.512;2022-12-08T06:19:15;97352.38;;;-0.99;69.45
75039;BME280;63609;49.992;14.512;2022-12-08T06:21:43;97355.63;;;-0.82;68.84
75039;BME280;63609;49.992;14.512;2022-12-08T06:24:10;97368.47;;;-0.91;69.35
75039;BME280;63609;49.992;14.512;2022-12-08T06:26:37;97361.91;;;-0.98;69.94
75039;BME280;63609;49.992;14.512;2022-12-08T06:29:06;97373.13;;;-1.23;70.13
75039;BME280;63609;49.992;14.512;2022-12-08T06:31:33;97365.41;;;-1.12;69.78
75039;BME280;63609;49.992;14.512;2022-12-08T06:34:00;97353.50;;;-0.89;68.66
75039;BME280;63609;49.992;14.512;2022-12-08T06:36:27;97375.84;;;-0.98;69.38
75039;BME280;63609;49.992;14.512;2022-12-08T06:38:55;97362.75;;;-0.84;69.11
75039;BME280;63609;49.992;14.512;2022-12-08T06:41:22;97374.66;;;-0.92;69.25
75039;BME280;63609;49.992;14.512;2022-12-08T06:43:48;97362.22;;;-1.03;68.59
75039;BME280;63609;49.992;14.512;2022-12-08T06:46:17;97372.97;;;-1.08;69.08
75039;BME280;63609;49.992;14.512;2022-12-08T06:48:44;97375.44;;;-1.33;69.93
75039;BME280;63609;49.992;14.512;2022-12-08T06:51:14;97366.00;;;-1.21;69.62
75039;BME280;63609;49.992;14.512;2022-12-08T06:53:42;97376.47;;;-1.21;70.11
75039;BME280;63609;49.992;14.512;2022-12-08T06:56:10;97371.78;;;-1.30;70.42
75039;BME280;63609;49.992;14.512;2022-12-08T06:58:37;97372.50;;;-1.00;68.81
75039;BME280;63609;49.992;14.512;2022-12-08T07:01:09;97379.50;;;-1.00;68.81
75039;BME280;63609;49.992;14.512;2022-12-08T07:03:38;97380.16;;;-0.97;69.57
75039;BME280;63609;49.992;14.512;2022-12-08T07:06:05;97381.09;;;-0.98;68.57
75039;BME280;63609;49.992;14.512;2022-12-08T07:08:32;97374.00;;;-0.69;67.85
75039;BME280;63609;49.992;14.512;2022-12-08T07:11:06;97373.88;;;-0.80;67.57
75039;BME280;63609;49.992;14.512;2022-12-08T07:13:33;97376.34;;;-0.91;68.12
75039;BME280;63609;49.992;14.512;2022-12-08T07:15:59;97381.47;;;-0.63;67.56
75039;BME280;63609;49.992;14.512;2022-12-08T07:18:26;97377.28;;;-0.92;68.42
75039;BME280;63609;49.992;14.512;2022-12-08T07:20:53;97378.72;;;-0.74;68.33
75039;BME280;63609;49.992;14.512;2022-12-08T07:23:19;97371.50;;;-0.70;68.31
75039;BME280;63609;49.992;14.512;2022-12-08T07:25:46;97368.38;;;-0.63;67.60
75039;BME280;63609;49.992;14.512;2022-12-08T07:28:13;97358.88;;;-0.78;67.71
75039;BME280;63609;49.992;14.512;2022-12-08T07:30:39;97372.59;;;-0.87;68.54
75039;BME280;63609;49.992;14.512;2022-12-08T07:33:06;97372.13;;;-0.67;67.58
75039;BME280;63609;49.992;14.512;2022-12-08T07:35:33;97371.03;;;-0.77;67.78
75039;BME280;63609;49.992;14.512;2022-12-08T07:38:01;97367.88;;;-0.82;68.32
75039;BME280;63609;49.992;14.512;2022-12-08T07:40:27;97359.66;;;-0.63;67.82
75039;BME280;63609;49.992;14.512;2022-12-08T07:42:54;97376.72;;;-0.70;68.13
75039;BME280;63609;49.992;14.512;2022-12-08T07:45:21;97374.50;;;-0.77;67.31
75039;BME280;63609;49.992;14.512;2022-12-08T07:47:56;97372.63;;;-0.75;67.63
75039;BME280;63609;49.992;14.512;2022-12-08T07:50:23;97382.03;;;-0.85;68.57
75039;BME280;63609;49.992;14.512;2022-12-08T07:52:49;97381.00;;;-0.55;67.07
75039;BME280;63609;49.992;14.512;2022-12-08T07:55:17;97382.28;;;-0.48;67.27
75039;BME280;63609;49.992;14.512;2022-12-08T07:57:43;97384.19;;;-0.64;67.78
75039;BME280;63609;49.992;14.512;2022-12-08T08:00:10;97385.22;;;-0.67;67.30
75039;BME280;63609;49.992;14.512;2022-12-08T08:02:37;97382.47;;;-0.51;67.27
75039;BME280;63609;49.992;14.512;2022-12-08T08:05:05;97379.13;;;-0.53;67.24
75039;BME280;63609;49.992;14.512;2022-12-08T08:07:32;97391.13;;;-0.63;67.38
75039;BME280;63609;49.992;14.512;2022-12-08T08:09:58;97393.63;;;-0.62;67.75
75039;BME280;63609;49.992;14.512;2022-12-08T08:12:25;97392.84;;;-0.77;67.28
75039;BME280;63609;49.992;14.512;2022-12-08T08:14:58;97384.94;;;-0.62;67.14
75039;BME280;63609;49.992;14.512;2022-12-08T08:17:25;97384.09;;;-0.63;67.49
75039;BME280;63609;49.992;14.512;2022-12-08T08:19:52;97390.81;;;-0.86;67.21
75039;BME280;63609;49.992;14.512;2022-12-08T08:22:19;97387.75;;;-0.65;66.88
75039;BME280;63609;49.992;14.512;2022-12-08T08:24:46;97384.28;;;-0.39;66.19
75039;BME280;63609;49.992;14.512;2022-12-08T08:27:13;97391.31;;;-0.39;66.44
75039;BME280;63609;49.992;14.512;2022-12-08T08:29:39;97388.16;;;-0.45;66.03
75039;BME280;63609;49.992;14.512;2022-12-08T08:32:06;97384.16;;;-0.23;66.49
75039;BME280;63609;49.992;14.512;2022-12-08T08:34:33;97389.78;;;-0.29;65.99
75039;BME280;63609;49.992;14.512;2022-12-08T08:36:59;97383.00;;;-0.19;66.54
75039;BME280;63609;49.992;14.512;2022-12-08T08:39:27;97385.75;;;-0.08;66.41
75039;BME280;63609;49.992;14.512;2022-12-08T08:41:55;97384.25;;;-0.25;66.37
75039;BME280;63609;49.992;14.512;2022-12-08T08:44:22;97383.03;;;-0.06;66.49
75039;BME280;63609;49.992;14.512;2022-12-08T08:46:50;97389.47;;;0.15;66.31
75039;BME280;63609;49.992;14.512;2022-12-08T08:49:17;97390.50;;;0.12;66.23
75039;BME280;63609;49.992;14.512;2022-12-08T08:51:44;97384.75;;;0.07;65.90
75039;BME280;63609;49.992;14.512;2022-12-08T08:54:11;97384.84;;;0.31;64.66
75039;BME280;63609;49.992;14.512;2022-12-08T08:56:38;97382.75;;;0.24;65.48
75039;BME280;63609;49.992;14.512;2022-12-08T08:59:05;97376.53;;;0.63;64.68
75039;BME280;63609;49.992;14.512;2022-12-08T09:01:32;97384.09;;;0.67;64.08
75039;BME280;63609;49.992;14.512;2022-12-08T09:03:59;97388.44;;;1.18;63.28
75039;BME280;63609;49.992;14.512;2022-12-08T09:06:26;97375.25;;;0.94;63.43
75039;BME280;63609;49.992;14.512;2022-12-08T09:08:54;97394.56;;;1.05;62.47
75039;BME280;63609;49.992;14.512;2022-12-08T09:11:20;97383.38;;;0.78;63.42
75039;BME280;63609;49.992;14.512;2022-12-08T09:13:50;97385.34;;;0.87;63.10
75039;BME280;63609;49.992;14.512;2022-12-08T09:16:17;97389.78;;;1.23;62.52
75039;BME280;63609;49.992;14.512;2022-12-08T09:18:44;97381.72;;;1.13;61.62
75039;BME280;63609;49.992;14.512;2022-12-08T09:21:13;97382.44;;;1.16;62.03
75039;BME280;63609;49.992;14.512;2022-12-08T09:23:42;97382.28;;;1.66;60.47
75039;BME280;63609;49.992;14.512;2022-12-08T09:26:09;97373.88;;;1.37;61.01
75039;BME280;63609;49.992;14.512;2022-12-08T09:28:36;97388.66;;;1.02;61.83
75039;BME280;63609;49.992;14.512;2022-12-08T09:31:03;97376.69;;;1.34;61.05
75039;BME280;63609;49.992;14.512;2022-12-08T09:33:30;97364.66;;;1.56;60.55
75039;BME280;63609;49.992;14.512;2022-12-08T09:36:01;97373.38;;;1.56;60.48
75039;BME280;63609;49.992;14.512;2022-12-08T09:38:30;97377.00;;;1.66;59.71
75039;BME280;63609;49.992;14.512;2022-12-08T09:40:57;97378.50;;;1.47;61.06
75039;BME280;63609;49.992;14.512;2022-12-08T09:46:08;97368.41;;;1.28;60.81
75039;BME280;63609;49.992;14.512;2022-12-08T09:48:43;97357.50;;;1.58;60.38
75039;BME280;63609;49.992;14.512;2022-12-08T09:51:15;97356.16;;;1.52;60.11
75039;BME280;63609;49.992;14.512;2022-12-08T09:53:45;97350.66;;;1.79;59.43
75039;BME280;63609;49.992;14.512;2022-12-08T09:58:51;97349.56;;;1.47;60.73
75039;BME280;63609;49.992;14.512;2022-12-08T10:01:23;97347.22;;;1.66;60.53
75039;BME280;63609;49.992;14.512;2022-12-08T10:03:52;97343.66;;;1.67;59.83
75039;BME280;63609;49.992;14.512;2022-12-08T10:06:30;97344.44;;;1.80;59.01
75039;BME280;63609;49.992;14.512;2022-12-08T10:09:24;97342.38;;;1.72;59.49
75039;BME280;63609;49.992;14.512;2022-12-08T10:12:16;97345.00;;;1.72;59.05
75039;BME280;63609;49.992;14.512;2022-12-08T10:17:40;97346.72;;;1.85;60.32
75039;BME280;63609;49.992;14.512;2022-12-08T10:20:12;97342.84;;;2.13;58.70
75039;BME280;63609;49.992;14.512;2022-12-08T10:22:40;97334.25;;;1.76;58.83
75039;BME280;63609;49.992;14.512;2022-12-08T10:25:31;97328.91;;;2.34;57.89
75039;BME280;63609;49.992;14.512;2022-12-08T10:28:00;97332.56;;;1.74;58.95
75039;BME280;63609;49.992;14.512;2022-12-08T10:30:27;97327.91;;;2.24;58.46
75039;BME280;63609;49.992;14.512;2022-12-08T10:32:54;97321.56;;;2.27;58.49
75039;BME280;63609;49.992;14.512;2022-12-08T10:35:21;97323.03;;;2.42;56.52
75039;BME280;63609;49.992;14.512;2022-12-08T10:37:56;97315.59;;;2.81;56.53
75039;BME280;63609;49.992;14.512;2022-12-08T10:40:27;97308.41;;;2.38;57.73
75039;BME280;63609;49.992;14.512;2022-12-08T10:42:56;97296.66;;;2.87;57.70
75039;BME280;63609;49.992;14.512;2022-12-08T10:45:32;97305.31;;;2.66;56.76
75039;BME280;63609;49.992;14.512;2022-12-08T10:48:05;97299.66;;;2.60;56.61
75039;BME280;63609;49.992;14.512;2022-12-08T10:50:43;97287.31;;;2.27;57.35
75039;BME280;63609;49.992;14.512;2022-12-08T10:53:12;97294.84;;;2.09;57.68
75039;BME280;63609;49.992;14.512;2022-12-08T10:55:46;97289.72;;;2.63;56.09
75039;BME280;63609;49.992;14.512;2022-12-08T10:58:40;97283.47;;;2.87;57.16
75039;BME280;63609;49.992;14.512;2022-12-08T11:01:24;97291.22;;;3.11;55.81
75039;BME280;63609;49.992;14.512;2022-12-08T11:04:03;97285.78;;;3.23;55.28
75039;BME280;63609;49.992;14.512;2022-12-08T11:06:33;97284.09;;;3.34;54.40
75039;BME280;63609;49.992;14.512;2022-12-08T11:09:04;97287.50;;;3.13;54.51
75039;BME280;63609;49.992;14.512;2022-12-08T11:11:46;97275.06;;;3.36;54.64
75039;BME280;63609;49.992;14.512;2022-12-08T11:14:24;97281.59;;;3.85;52.50
75039;BME280;63609;49.992;14.512;2022-12-08T11:16:54;97272.97;;;3.19;54.55
75039;BME280;63609;49.992;14.512;2022-12-08T11:19:25;97285.25;;;3.61;53.88
75039;BME280;63609;49.992;14.512;2022-12-08T11:21:53;97276.75;;;3.90;53.33
75039;BME280;63609;49.992;14.512;2022-12-08T11:24:24;97273.94;;;3.50;53.83
75039;BME280;63609;49.992;14.512;2022-12-08T11:26:55;97275.56;;;2.87;55.15
75039;BME280;63609;49.992;14.512;2022-12-08T11:29:26;97272.72;;;3.54;54.66
75039;BME280;63609;49.992;14.512;2022-12-08T11:32:17;97273.03;;;3.28;54.28
75039;BME280;63609;49.992;14.512;2022-12-08T11:35:04;97272.66;;;3.01;54.07
75039;BME280;63609;49.992;14.512;2022-12-08T11:37:38;97268.16;;;2.81;55.30
75039;BME280;63609;49.992;14.512;2022-12-08T11:40:16;97269.66;;;3.06;55.12
75039;BME280;63609;49.992;14.512;2022-12-08T11:43:01;97263.94;;;3.33;54.10
75039;BME280;63609;49.992;14.512;2022-12-08T11:45:33;97265.63;;;3.54;53.49
75039;BME280;63609;49.992;14.512;2022-12-08T11:51:00;97252.69;;;3.30;53.39
75039;BME280;63609;49.992;14.512;2022-12-08T11:53:39;97251.16;;;3.49;53.81
75039;BME280;63609;49.992;14.512;2022-12-08T11:56:26;97251.50;;;3.76;53.88
75039;BME280;63609;49.992;14.512;2022-12-08T11:58:58;97245.34;;;3.55;54.00
75039;BME280;63609;49.992;14.512;2022-12-08T12:01:27;97245.16;;;2.72;54.39
75039;BME280;63609;49.992;14.512;2022-12-08T12:06:38;97245.97;;;2.83;55.94
75039;BME280;63609;49.992;14.512;2022-12-08T12:18:10;97238.28;;;3.03;54.96
75039;BME280;63609;49.992;14.512;2022-12-08T12:21:05;97238.53;;;3.32;53.79
75039;BME280;63609;49.992;14.512;2022-12-08T12:23:57;97231.72;;;3.18;54.49
75039;BME280;63609;49.992;14.512;2022-12-08T12:26:30;97235.47;;;3.68;53.62
75039;BME280;63609;49.992;14.512;2022-12-08T12:31:35;97228.50;;;3.46;53.08
75039;BME280;63609;49.992;14.512;2022-12-08T12:34:28;97239.94;;;3.04;53.93
75039;BME280;63609;49.992;14.512;2022-12-08T12:36:56;97228.88;;;3.10;53.50
75039;BME280;63609;49.992;14.512;2022-12-08T12:39:28;97230.34;;;3.03;54.35
75039;BME280;63609;49.992;14.512;2022-12-08T12:41:58;97235.66;;;3.23;54.77
75039;BME280;63609;49.992;14.512;2022-12-08T12:46:58;97234.16;;;3.10;53.42
75039;BME280;63609;49.992;14.512;2022-12-08T12:54:41;97225.97;;;4.68;50.68
75039;BME280;63609;49.992;14.512;2022-12-08T13:05:09;97209.63;;;3.51;50.60
75039;BME280;63609;49.992;14.512;2022-12-08T13:07:44;97208.84;;;3.81;50.15
75039;BME280;63609;49.992;14.512;2022-12-08T13:10:17;97217.34;;;3.96;50.62
75039;BME280;63609;49.992;14.512;2022-12-08T13:12:45;97205.16;;;5.23;49.65
75039;BME280;63609;49.992;14.512;2022-12-08T13:15:33;97200.25;;;4.30;47.55
75039;BME280;63609;49.992;14.512;2022-12-08T13:18:00;97199.41;;;4.30;49.69
75039;BME280;63609;49.992;14.512;2022-12-08T13:20:27;97204.88;;;3.86;51.78
75039;BME280;63609;49.992;14.512;2022-12-08T13:26:07;97212.16;;;3.52;51.26
75039;BME280;63609;49.992;14.512;2022-12-08T13:39:46;97199.84;;;4.04;49.54
75039;BME280;63609;49.992;14.512;2022-12-08T13:47:53;97191.22;;;3.81;51.52
75039;BME280;63609;49.992;14.512;2022-12-08T13:50:46;97192.84;;;3.52;51.01
75039;BME280;63609;49.992;14.512;2022-12-08T13:53:38;97198.00;;;3.01;52.36
75039;BME280;63609;49.992;14.512;2022-12-08T13:56:27;97200.94;;;3.60;50.73
75039;BME280;63609;49.992;14.512;2022-12-08T14:01:46;97199.88;;;3.10;53.07
75039;BME280;63609;49.992;14.512;2022-12-08T14:04:17;97204.09;;;3.33;52.51
75039;BME280;63609;49.992;14.512;2022-12-08T14:07:04;97200.66;;;3.01;52.99
75039;BME280;63609;49.992;14.512;2022-12-08T14:09:34;97206.22;;;2.75;53.82
75039;BME280;63609;49.992;14.512;2022-12-08T14:12:21;97203.28;;;2.89;54.13
75039;BME280;63609;49.992;14.512;2022-12-08T14:14:56;97195.75;;;2.42;56.06
75039;BME280;63609;49.992;14.512;2022-12-08T14:17:29;97203.63;;;2.53;55.14
75039;BME280;63609;49.992;14.512;2022-12-08T14:22:28;97203.56;;;2.10;55.56
75039;BME280;63609;49.992;14.512;2022-12-08T14:24:57;97203.78;;;2.18;55.13
75039;BME280;63609;49.992;14.512;2022-12-08T14:27:26;97201.88;;;2.20;55.54
75039;BME280;63609;49.992;14.512;2022-12-08T14:29:58;97199.69;;;1.80;55.34
75039;BME280;63609;49.992;14.512;2022-12-08T14:32:30;97202.94;;;1.95;54.59
75039;BME280;63609;49.992;14.512;2022-12-08T14:37:40;97202.34;;;2.25;54.70
75039;BME280;63609;49.992;14.512;2022-12-08T14:40:24;97208.56;;;1.79;55.84
75039;BME280;63609;49.992;14.512;2022-12-08T14:56:07;97192.28;;;1.74;56.46
75039;BME280;63609;49.992;14.512;2022-12-08T14:58:35;97198.16;;;1.78;56.19
75039;BME280;63609;49.992;14.512;2022-12-08T15:01:02;97197.31;;;1.77;56.21